Time,TemperatureF,DewpointF,PressureIn,WindDirection,WindDirectionDegrees,WindSpeedMPH,WindSpeedGustMPH,Humidity,HourlyPrecipIn,Conditions,Clouds,dailyrainin,SoftwareType,DateUTC
2013-01-29 00:05:00,56.8,56.5,29.53,South,180,7.3,-999.0,99,-99.99,,,0.00,Acu-Link.com,2013-01-29 06:05:00,
2013-01-29 00:20:00,57.2,56.9,29.53,SE,135,5.3,-999.0,99,-99.99,,,0.00,Acu-Link.com,2013-01-29 06:20:00,
2013-01-29 00:51:00,57.0,56.7,29.51,SSW,202,8.9,-999.0,99,-99.99,,,0.00,Acu-Link.com,2013-01-29 06:51:00,
2013-01-29 01:06:00,57.2,56.6,29.51,SW,225,6.8,-999.0,98,-99.99,,,0.00,Acu-Link.com,2013-01-29 07:06:00,
2013-01-29 01:21:00,57.6,56.8,29.50,SSE,157,5.8,-999.0,97,-99.99,,,0.00,Acu-Link.com,2013-01-29 07:21:00,
2013-01-29 01:36:00,57.7,56.9,29.51,South,180,7.8,-999.0,97,-99.99,,,0.00,Acu-Link.com,2013-01-29 07:36:00,
2013-01-29 01:51:00,58.3,57.5,29.50,South,180,11.9,-999.0,97,-99.99,,,0.00,Acu-Link.com,2013-01-29 07:51:00,
2013-01-29 02:06:00,58.6,57.8,29.49,South,180,9.4,-999.0,97,-99.99,,,0.00,Acu-Link.com,2013-01-29 08:06:00,
2013-01-29 02:21:00,58.8,57.7,29.49,South,180,8.3,-999.0,96,-99.99,,,0.00,Acu-Link.com,2013-01-29 08:21:00,
2013-01-29 02:37:00,59.0,57.9,29.48,West,270,7.8,-999.0,96,-99.99,,,0.00,Acu-Link.com,2013-01-29 08:37:00,
2013-01-29 02:52:00,59.2,58.1,29.47,SSW,202,11.9,-999.0,96,-99.99,,,0.00,Acu-Link.com,2013-01-29 08:52:00,
2013-01-29 03:15:00,59.2,58.1,29.47,South,180,8.9,-999.0,96,-99.99,,,0.00,Acu-Link.com,2013-01-29 09:15:00,
2013-01-29 03:30:00,59.0,57.9,29.48,SSW,202,4.7,-999.0,96,-99.99,,,0.00,Acu-Link.com,2013-01-29 09:30:00,
2013-01-29 03:46:00,59.0,58.1,29.49,SSE,157,11.4,-999.0,97,-99.99,,,0.03,Acu-Link.com,2013-01-29 09:46:00,
2013-01-29 04:01:00,58.5,57.7,29.46,South,180,3.7,-999.0,97,-99.99,,,0.03,Acu-Link.com,2013-01-29 10:01:00,
2013-01-29 04:16:00,58.3,57.5,29.46,South,180,4.7,-999.0,97,-99.99,,,0.03,Acu-Link.com,2013-01-29 10:16:00,
2013-01-29 04:31:00,58.1,57.5,29.46,WSW,247,7.8,-999.0,98,-99.99,,,0.03,Acu-Link.com,2013-01-29 10:31:00,
2013-01-29 04:47:00,58.3,57.7,29.45,South,180,6.8,-999.0,98,-99.99,,,0.03,Acu-Link.com,2013-01-29 10:47:00,
2013-01-29 05:02:00,58.3,57.7,29.45,SSW,202,8.3,-999.0,98,-99.99,,,0.03,Acu-Link.com,2013-01-29 11:02:00,
2013-01-29 05:17:00,58.5,57.7,29.44,South,180,4.7,-999.0,97,-99.99,,,0.03,Acu-Link.com,2013-01-29 11:17:00,
2013-01-29 05:33:00,58.3,57.5,29.45,South,180,4.7,-999.0,97,-99.99,,,0.03,Acu-Link.com,2013-01-29 11:33:00,
2013-01-29 05:48:00,58.3,57.5,29.46,SW,225,6.3,-999.0,97,-99.99,,,0.03,Acu-Link.com,2013-01-29 11:48:00,
2013-01-29 06:03:00,57.9,57.1,29.45,SW,225,4.2,-999.0,97,-99.99,,,0.03,Acu-Link.com,2013-01-29 12:03:00,
2013-01-29 06:18:00,58.1,57.3,29.45,SSW,202,7.3,-999.0,97,-99.99,,,0.04,Acu-Link.com,2013-01-29 12:18:00,
2013-01-29 06:33:00,58.1,57.3,29.44,SSW,202,10.4,-999.0,97,-99.99,,,0.04,Acu-Link.com,2013-01-29 12:33:00,
2013-01-29 06:49:00,58.1,57.3,29.43,South,180,6.3,-999.0,97,-99.99,,,0.04,Acu-Link.com,2013-01-29 12:49:00,
2013-01-29 07:04:00,57.9,57.1,29.43,South,180,3.7,-999.0,97,-99.99,,,0.04,Acu-Link.com,2013-01-29 13:04:00,
2013-01-29 07:19:00,57.9,57.1,29.43,ESE,112,6.3,-999.0,97,-99.99,,,0.04,Acu-Link.com,2013-01-29 13:19:00,
2013-01-29 07:34:00,57.9,57.1,29.43,West,270,6.3,-999.0,97,-99.99,,,0.04,Acu-Link.com,2013-01-29 13:34:00,
2013-01-29 07:50:00,58.1,57.3,29.43,South,180,7.3,-999.0,97,-99.99,,,0.04,Acu-Link.com,2013-01-29 13:50:00,
2013-01-29 08:05:00,58.3,57.5,29.42,South,180,3.7,-999.0,97,-99.99,,,0.04,Acu-Link.com,2013-01-29 14:05:00,
2013-01-29 08:20:00,58.5,57.7,29.43,WNW,292,4.2,-999.0,97,-99.99,,,0.04,Acu-Link.com,2013-01-29 14:20:00,
2013-01-29 08:36:00,58.5,57.7,29.43,SSE,157,4.2,-999.0,97,-99.99,,,0.04,Acu-Link.com,2013-01-29 14:36:00,
2013-01-29 08:51:00,58.6,57.5,29.41,West,270,5.8,-999.0,96,-99.99,,,0.04,Acu-Link.com,2013-01-29 14:51:00,
2013-01-29 09:06:00,59.2,58.1,29.41,South,180,6.8,-999.0,96,-99.99,,,0.04,Acu-Link.com,2013-01-29 15:06:00,
2013-01-29 09:21:00,59.4,58.0,29.41,SE,135,2.7,-999.0,95,-99.99,,,0.04,Acu-Link.com,2013-01-29 15:21:00,
2013-01-29 09:36:00,59.9,58.5,29.42,SSW,202,6.3,-999.0,95,-99.99,,,0.04,Acu-Link.com,2013-01-29 15:36:00,
2013-01-29 09:52:00,60.6,58.9,29.41,SW,225,7.8,-999.0,94,-99.99,,,0.04,Acu-Link.com,2013-01-29 15:52:00,
2013-01-29 10:07:00,61.2,58.9,29.40,South,180,4.2,-999.0,92,-99.99,,,0.04,Acu-Link.com,2013-01-29 16:07:00,
2013-01-29 10:22:00,61.7,59.0,29.41,South,180,8.9,-999.0,91,-99.99,,,0.04,Acu-Link.com,2013-01-29 16:22:00,
2013-01-29 10:38:00,62.1,59.4,29.40,South,180,11.9,-999.0,91,-99.99,,,0.04,Acu-Link.com,2013-01-29 16:38:00,
2013-01-29 10:53:00,63.5,59.9,29.39,South,180,4.2,-999.0,88,-99.99,,,0.04,Acu-Link.com,2013-01-29 16:53:00,
2013-01-29 11:08:00,63.7,59.8,29.38,SSE,157,8.3,-999.0,87,-99.99,,,0.04,Acu-Link.com,2013-01-29 17:08:00,
2013-01-29 11:24:00,64.0,60.0,29.37,South,180,4.2,-999.0,87,-99.99,,,0.04,Acu-Link.com,2013-01-29 17:24:00,
2013-01-29 11:39:00,64.2,59.9,29.35,SW,225,9.4,-999.0,86,-99.99,,,0.04,Acu-Link.com,2013-01-29 17:39:00,
2013-01-29 11:54:00,64.4,60.1,29.36,SW,225,5.8,-999.0,86,-99.99,,,0.04,Acu-Link.com,2013-01-29 17:54:00,
2013-01-29 12:09:00,63.9,59.6,29.35,ENE,67,7.3,-999.0,86,-99.99,,,0.04,Acu-Link.com,2013-01-29 18:09:00,
2013-01-29 12:25:00,63.1,59.5,29.32,SW,225,4.7,-999.0,88,-99.99,,,0.04,Acu-Link.com,2013-01-29 18:25:00,
2013-01-29 12:40:00,61.2,60.0,29.32,SW,225,4.7,-999.0,96,-99.99,,,0.10,Acu-Link.com,2013-01-29 18:40:00,
2013-01-29 12:55:00,60.8,59.7,29.30,SSE,157,7.3,-999.0,96,-99.99,,,0.20,Acu-Link.com,2013-01-29 18:55:00,
2013-01-29 13:10:00,60.8,59.7,29.29,ESE,112,2.7,-999.0,96,-99.99,,,0.20,Acu-Link.com,2013-01-29 19:10:00,
2013-01-29 13:26:00,60.6,59.5,29.27,SW,225,4.2,-999.0,96,-99.99,,,0.20,Acu-Link.com,2013-01-29 19:26:00,
2013-01-29 13:41:00,58.6,55.4,29.28,SSW,202,1.1,-999.0,89,-99.99,,,0.20,Acu-Link.com,2013-01-29 19:41:00,
2013-01-29 13:56:00,56.8,55.1,29.27,West,270,2.2,-999.0,94,-99.99,,,0.23,Acu-Link.com,2013-01-29 19:56:00,
2013-01-29 14:11:00,55.2,54.6,29.27,South,180,2.2,-999.0,98,-99.99,,,0.47,Acu-Link.com,2013-01-29 20:11:00,
2013-01-29 14:27:00,55.0,54.4,29.26,West,270,0.0,-999.0,98,-99.99,,,0.63,Acu-Link.com,2013-01-29 20:27:00,
2013-01-29 14:42:00,54.9,54.6,29.28,West,270,0.0,-999.0,99,-99.99,,,0.75,Acu-Link.com,2013-01-29 20:42:00,
2013-01-29 14:57:00,54.9,54.6,29.27,WNW,292,0.0,-999.0,99,-99.99,,,0.80,Acu-Link.com,2013-01-29 20:57:00,
2013-01-29 15:13:00,55.0,54.7,29.26,WNW,292,0.0,-999.0,99,-99.99,,,0.83,Acu-Link.com,2013-01-29 21:13:00,
2013-01-29 15:28:00,55.2,54.9,29.26,SSW,202,0.0,-999.0,99,-99.99,,,0.83,Acu-Link.com,2013-01-29 21:28:00,
2013-01-29 15:43:00,55.0,54.7,29.24,East,90,0.0,-999.0,99,-99.99,,,0.84,Acu-Link.com,2013-01-29 21:43:00,
2013-01-29 15:58:00,54.7,54.4,29.29,SW,225,0.0,-999.0,99,-99.99,,,0.91,Acu-Link.com,2013-01-29 21:58:00,
2013-01-29 16:14:00,54.9,54.6,29.27,NW,315,0.0,-999.0,99,-99.99,,,1.00,Acu-Link.com,2013-01-29 22:14:00,
2013-01-29 16:29:00,54.7,54.4,29.27,NW,315,0.0,-999.0,99,-99.99,,,1.11,Acu-Link.com,2013-01-29 22:29:00,
2013-01-29 16:44:00,54.7,54.4,29.26,South,180,0.0,-999.0,99,-99.99,,,1.18,Acu-Link.com,2013-01-29 22:44:00,
2013-01-29 17:00:00,54.5,54.2,29.26,South,180,0.0,-999.0,99,-99.99,,,1.25,Acu-Link.com,2013-01-29 23:00:00,
2013-01-29 17:15:00,54.3,54.0,29.26,West,270,0.0,-999.0,99,-99.99,,,1.32,Acu-Link.com,2013-01-29 23:15:00,
2013-01-29 17:30:00,54.3,54.0,29.26,West,270,0.0,-999.0,99,-99.99,,,1.38,Acu-Link.com,2013-01-29 23:30:00,
2013-01-29 17:45:00,54.1,53.8,29.27,West,270,0.0,-999.0,99,-99.99,,,1.43,Acu-Link.com,2013-01-29 23:45:00,
2013-01-29 18:00:00,54.0,53.7,29.26,West,270,0.0,-999.0,99,-99.99,,,1.51,Acu-Link.com,2013-01-30 00:00:00,
2013-01-29 18:16:00,54.0,53.7,29.26,West,270,0.0,-999.0,99,-99.99,,,1.53,Acu-Link.com,2013-01-30 00:16:00,
2013-01-29 18:31:00,53.8,53.5,29.26,West,270,0.0,-999.0,99,-99.99,,,1.55,Acu-Link.com,2013-01-30 00:31:00,
2013-01-29 18:46:00,53.6,53.3,29.25,West,270,0.0,-999.0,99,-99.99,,,1.61,Acu-Link.com,2013-01-30 00:46:00,
2013-01-29 19:01:00,53.2,52.9,29.26,West,270,0.0,-999.0,99,-99.99,,,1.63,Acu-Link.com,2013-01-30 01:01:00,
2013-01-29 19:16:00,53.2,52.9,29.24,West,270,0.0,-999.0,99,-99.99,,,1.65,Acu-Link.com,2013-01-30 01:16:00,
2013-01-29 19:32:00,52.9,52.6,29.23,West,270,0.0,-999.0,99,-99.99,,,1.67,Acu-Link.com,2013-01-30 01:32:00,
2013-01-29 19:47:00,52.9,52.6,29.23,ESE,112,0.0,-999.0,99,-99.99,,,1.72,Acu-Link.com,2013-01-30 01:47:00,
2013-01-29 20:02:00,52.9,52.6,29.24,SSE,157,0.0,-999.0,99,-99.99,,,1.75,Acu-Link.com,2013-01-30 02:02:00,
2013-01-29 20:18:00,52.7,52.4,29.22,SSE,157,0.0,-999.0,99,-99.99,,,1.77,Acu-Link.com,2013-01-30 02:18:00,
2013-01-29 20:33:00,52.7,52.4,29.20,SSE,157,0.0,-999.0,99,-99.99,,,1.79,Acu-Link.com,2013-01-30 02:33:00,
2013-01-29 20:48:00,52.3,52.0,29.22,SSE,157,0.0,-999.0,99,-99.99,,,1.81,Acu-Link.com,2013-01-30 02:48:00,
2013-01-29 21:04:00,52.3,52.0,29.23,SSE,157,0.0,-999.0,99,-99.99,,,1.84,Acu-Link.com,2013-01-30 03:04:00,
2013-01-29 21:19:00,52.2,51.9,29.23,SSE,157,0.0,-999.0,99,-99.99,,,1.88,Acu-Link.com,2013-01-30 03:19:00,
2013-01-29 21:34:00,52.0,51.7,29.24,South,180,2.7,-999.0,99,-99.99,,,1.95,Acu-Link.com,2013-01-30 03:34:00,
2013-01-29 21:49:00,52.0,51.7,29.24,SSW,202,0.0,-999.0,99,-99.99,,,1.98,Acu-Link.com,2013-01-30 03:49:00,
2013-01-29 22:04:00,51.6,51.3,29.22,South,180,0.0,-999.0,99,-99.99,,,2.00,Acu-Link.com,2013-01-30 04:04:00,
2013-01-29 22:20:00,51.1,50.8,29.20,South,180,0.0,-999.0,99,-99.99,,,2.03,Acu-Link.com,2013-01-30 04:20:00,
2013-01-29 22:35:00,51.1,50.8,29.19,South,180,0.0,-999.0,99,-99.99,,,2.05,Acu-Link.com,2013-01-30 04:35:00,
2013-01-29 22:50:00,50.9,50.6,29.17,South,180,0.0,-999.0,99,-99.99,,,2.05,Acu-Link.com,2013-01-30 04:50:00,
2013-01-29 23:06:00,50.9,50.6,29.16,South,180,0.0,-999.0,99,-99.99,,,2.06,Acu-Link.com,2013-01-30 05:06:00,
2013-01-29 23:21:00,50.9,50.6,29.15,South,180,0.0,-999.0,99,-99.99,,,2.06,Acu-Link.com,2013-01-30 05:21:00,
2013-01-29 23:36:00,50.9,50.6,29.15,SSW,202,0.0,-999.0,99,-99.99,,,2.07,Acu-Link.com,2013-01-30 05:36:00,
2013-01-29 23:51:00,50.9,50.6,29.16,South,180,0.0,-999.0,99,-99.99,,,2.08,Acu-Link.com,2013-01-30 05:51:00,